Skip Navigation Links Skip Navigation Links

Current Weather

Raleigh-Durham Intl, Raleigh, N.C.

For information only: do not use for flight planning or navigation.
Latest weather
Observation time Friday, February 21, 2020 3:51 AM EST
Local time Friday, February 21, 2020 4:03 AM EST
Flight conditions Visual Meteorological Conditions
Winds
Wind direction North-Northeast (20°)
Wind speed 10 mph
Wind gusting to 20 mph
Visibility 10 mi.
Sky condition
Ceiling unlimited
Cloud layer few clouds 800 ft.
Cloud layer scattered clouds 1,300 ft.
Cloud layer scattered clouds 2,000 ft.
Temperature 32°F
Dewpoint 29°F
Altimeter 30.34 in.Hg
Pressure change last 3 hours-0.01 in.Hg
Pressure rising more quickly
Derived measurements
Relative humidity 88%
Wind chill 24°F
Density altitude -1798 ft.
Sea-level pressure 30.35 in.Hg
Remarks
Automated weather observing station with precipitation discriminator.
METAR KRDU 210851Z 02009G17KT 10SM FEW008 SCT013 SCT020 00/M02 A3034 RMK AO2 SLP277 T00001017 53004

Settings

Location code

InnerDrive.Weather 4.0.6770.0 Release CLR 4.0.30319.42000
Copyright ©2018 Inner Drive Technology. All rights reserved. Portions Copyright ©1986-2018 David Braverman.

Find weather

Site navigation


Skip Navigation Links

Place info

Page info

PayPal - The safer, easier way to pay online!

Return home.

Copyright ©2020 Inner Drive Technology. Purveyors of fine, hand-crafted computer software. Page printed 2020-02-21T09:03:55 UTC.